Time;durP1;ratioP1;P1;durP2;ratioP2;P2;SDS_P1;SDS_P2;PMS_P1;PMS_P2;Temp;Humidity;BMP_temperature;BMP_pressure;BME280_temperature;BME280_humidity;BME280_pressure;Samples;Min_cycle;Max_cycle;Signal;HPM_P1;HPM_P2
2022/12/17 13:06:49;;;;;;;4.80;3.70;;;;;;;8.68;100.00;97103.14;107985;1260;69227;-67
2022/12/17 13:09:22;;;;;;;6.00;4.90;;;;;;;8.63;100.00;97111.48;107991;1267;69878;-67
2022/12/17 13:12:03;;;;;;;10.00;7.20;;;;;;;8.59;100.00;97111.24;107797;1266;59772;-67
2022/12/17 13:14:53;;;;;;;10.20;8.40;;;;;;;8.56;100.00;97119.73;108050;1269;59678;-67
2022/12/17 13:17:30;;;;;;;7.50;5.40;;;;;;;8.54;100.00;97131.71;107982;1266;69675;-67
2022/12/17 13:20:22;;;;;;;4.80;3.40;;;;;;;8.49;100.00;97145.98;108066;1265;68416;-67
2022/12/17 13:23:05;;;;;;;3.30;2.50;;;;;;;8.42;100.00;97156.31;107945;1267;69233;-67
2022/12/17 13:25:34;;;;;;;3.40;2.40;;;;;;;8.40;100.00;97164.79;108012;1267;59723;-66
2022/12/17 13:28:04;;;;;;;3.20;2.90;;;;;;;8.39;100.00;97164.90;107970;1265;59759;-66
2022/12/17 13:30:34;;;;;;;;;;;;;;;8.36;100.00;97165.77;108018;1267;71898;-66
2022/12/17 13:33:21;;;;;;;4.90;3.60;;;;;;;8.34;100.00;97168.85;107931;1267;68227;-66
2022/12/17 13:35:55;;;;;;;3.80;3.30;;;;;;;8.33;100.00;97174.50;107985;1267;69721;-66
2022/12/17 13:38:39;;;;;;;6.30;3.90;;;;;;;8.31;100.00;97178.73;108011;1268;59725;-66
2022/12/17 13:41:12;;;;;;;4.40;3.60;;;;;;;8.30;100.00;97191.16;107988;1267;59706;-66
2022/12/17 13:43:51;;;;;;;3.30;2.90;;;;;;;8.26;100.00;97196.84;108005;1268;70374;-66
2022/12/17 13:46:27;;;;;;;4.00;3.40;;;;;;;8.18;100.00;97207.92;108026;1266;69692;-66
2022/12/17 13:48:59;;;;;;;5.00;3.60;;;;;;;8.15;100.00;97220.07;107990;1264;69733;-67
2022/12/17 13:51:30;;;;;;;4.00;3.20;;;;;;;8.07;100.00;97226.35;108000;1266;59703;-67
2022/12/17 13:54:02;;;;;;;3.30;2.80;;;;;;;7.95;100.00;97234.61;108072;1267;59677;-67
2022/12/17 13:56:34;;;;;;;3.40;2.80;;;;;;;7.80;100.00;97239.02;107722;1267;71274;-67
2022/12/17 13:59:04;;;;;;;3.30;2.60;;;;;;;7.66;100.00;97247.04;107772;1267;68457;-67
2022/12/17 14:01:48;;;;;;;3.80;3.40;;;;;;;7.52;100.00;97248.43;107825;1267;68736;-67
2022/12/17 14:04:24;;;;;;;4.30;3.80;;;;;;;7.38;100.00;97253.82;108011;1263;59715;-67
2022/12/17 14:06:57;;;;;;;5.70;4.90;;;;;;;7.26;100.00;97257.86;107993;1267;59744;-67
2022/12/17 14:09:37;;;;;;;5.80;4.90;;;;;;;7.15;100.00;97263.23;108004;1266;71239;-66
2022/12/17 14:12:24;;;;;;;8.80;7.10;;;;;;;7.06;100.00;97261.52;107982;1267;68381;-68
2022/12/17 14:15:11;;;;;;;4.70;4.10;;;;;;;6.97;100.00;97262.80;107989;1267;69297;-67
2022/12/17 14:17:48;;;;;;;4.40;3.20;;;;;;;6.83;100.00;97266.92;108002;1267;59772;-68
2022/12/17 14:20:22;;;;;;;3.90;3.40;;;;;;;6.64;98.99;97274.46;107935;1267;59702;-67
2022/12/17 14:22:56;;;;;;;3.50;3.20;;;;;;;6.39;97.78;97279.02;107985;1266;71247;-66
2022/12/17 14:25:36;;;;;;;4.50;3.50;;;;;;;6.19;98.01;97291.79;107995;1266;69392;-66
2022/12/17 14:28:31;;;;;;;3.80;3.40;;;;;;;6.09;98.46;97297.02;107990;1263;68237;-66
2022/12/17 14:31:13;;;;;;;4.60;4.00;;;;;;;5.96;98.34;97302.62;107961;1266;59761;-67
2022/12/17 14:34:09;;;;;;;3.90;3.40;;;;;;;5.80;98.80;97306.22;107981;1267;60110;-67
2022/12/17 14:36:41;;;;;;;5.40;4.10;;;;;;;5.67;99.90;97313.35;107991;1267;70727;-66
2022/12/17 14:39:21;;;;;;;4.70;4.20;;;;;;;5.53;99.87;97318.91;107816;1267;68661;-66
2022/12/17 14:44:49;;;;;;;6.10;4.40;;;;;;;5.31;100.00;97343.77;108007;1267;59788;-65
2022/12/17 14:47:22;;;;;;;4.70;3.90;;;;;;;5.14;100.00;97350.39;107962;1268;59690;-66
2022/12/17 14:49:57;;;;;;;5.60;4.10;;;;;;;5.09;99.97;97366.85;108022;1267;71168;-66
2022/12/17 14:52:52;;;;;;;5.00;4.20;;;;;;;5.01;99.47;97374.55;108002;1267;68335;-66
2022/12/17 14:55:27;;;;;;;5.50;4.20;;;;;;;4.94;99.05;97377.48;107980;1267;69122;-66
2022/12/17 14:58:15;;;;;;;3.90;3.10;;;;;;;4.91;98.49;97370.73;107980;1267;59688;-66
2022/12/17 15:00:55;;;;;;;3.90;3.10;;;;;;;4.88;98.26;97366.40;107973;1266;59703;-65
2022/12/17 15:03:26;;;;;;;;;;;;;;;4.87;98.45;97369.77;108031;1267;71213;-66
2022/12/17 15:06:03;;;;;;;4.20;3.80;;;;;;;4.84;98.84;97373.50;107961;1266;68334;-66
2022/12/17 15:08:40;;;;;;;5.40;3.80;;;;;;;4.84;98.58;97383.52;107959;1267;68276;-66
2022/12/17 15:11:12;;;;;;;4.70;3.50;;;;;;;4.82;98.72;97386.90;107992;1266;59723;-66
2022/12/17 15:13:41;;;;;;;5.10;4.60;;;;;;;4.79;98.54;97384.60;108021;1262;59717;-65
2022/12/17 15:16:27;;;;;;;5.70;4.40;;;;;;;4.76;99.32;97389.96;107974;1266;71403;-66
2022/12/17 15:18:56;;;;;;;5.60;4.30;;;;;;;4.76;99.12;97404.45;108027;1267;68204;-65
2022/12/17 15:21:26;;;;;;;6.40;4.80;;;;;;;4.77;99.10;97409.79;107983;1266;69889;-64
2022/12/17 15:23:54;;;;;;;7.00;5.20;;;;;;;4.75;99.73;97411.05;107982;1267;59764;-67
2022/12/17 15:26:23;;;;;;;5.90;5.10;;;;;;;4.75;100.00;97417.11;107987;1261;59699;-68
2022/12/17 15:28:52;;;;;;;5.90;5.30;;;;;;;4.76;100.00;97427.44;108014;1267;71312;-66
2022/12/17 15:31:20;;;;;;;6.80;5.60;;;;;;;4.76;99.91;97435.01;107972;1266;68636;-66
2022/12/17 15:33:54;;;;;;;7.60;5.50;;;;;;;4.77;99.95;97441.21;107988;1260;69014;-66
2022/12/17 15:36:22;;;;;;;5.40;4.40;;;;;;;4.78;99.95;97446.34;107966;1263;59750;-65
2022/12/17 15:38:51;;;;;;;6.80;5.60;;;;;;;4.79;99.98;97454.76;107995;1263;59671;-66
2022/12/17 15:44:08;;;;;;;8.00;6.20;;;;;;;4.84;100.00;97459.65;108013;1265;68994;-65
2022/12/17 15:46:36;;;;;;;7.30;6.50;;;;;;;4.89;100.00;97462.35;107953;1267;68660;-65
2022/12/17 15:49:05;;;;;;;6.90;5.90;;;;;;;4.91;100.00;97469.02;107942;1267;59729;-66
2022/12/17 15:51:34;;;;;;;7.60;6.10;;;;;;;4.93;100.00;97473.22;107968;1266;59656;-65
2022/12/17 15:54:03;;;;;;;6.80;5.00;;;;;;;4.86;99.94;97476.51;108005;1260;71794;-66
2022/12/17 15:56:33;;;;;;;6.40;5.50;;;;;;;4.82;99.92;97485.52;108012;1267;69739;-65
2022/12/17 15:59:02;;;;;;;6.30;4.90;;;;;;;4.79;100.00;97495.66;107978;1269;69804;-65
2022/12/17 16:01:31;;;;;;;7.00;4.90;;;;;;;4.74;99.96;97500.73;107971;1267;59695;-65
2022/12/17 16:04:28;;;;;;;6.50;5.00;;;;;;;4.74;100.00;97503.15;107980;1267;59652;-65
2022/12/17 16:06:59;;;;;;;6.80;5.30;;;;;;;4.74;100.00;97511.80;107986;1266;71972;-65
2022/12/17 16:09:30;;;;;;;6.70;5.50;;;;;;;4.73;99.84;97515.27;107973;1267;69625;-64
2022/12/17 16:11:59;;;;;;;6.90;5.00;;;;;;;4.70;99.71;97522.70;107963;1267;68765;-64
2022/12/17 16:14:27;;;;;;;7.00;5.00;;;;;;;4.67;99.59;97518.50;107991;1267;59747;-65
2022/12/17 16:16:58;;;;;;;6.90;5.20;;;;;;;4.62;99.47;97513.38;107974;1256;59786;-65
2022/12/17 16:19:27;;;;;;;5.80;5.00;;;;;;;4.58;99.18;97512.67;108016;1267;71672;-65
2022/12/17 16:21:56;;;;;;;6.30;5.40;;;;;;;4.54;99.43;97516.69;108063;1262;69620;-65
2022/12/17 16:24:25;;;;;;;7.20;6.30;;;;;;;4.52;99.69;97526.59;107937;1266;68574;-65
2022/12/17 16:26:54;;;;;;;7.30;5.80;;;;;;;4.52;99.35;97534.40;107926;1265;59693;-65
2022/12/17 16:29:29;;;;;;;7.10;5.20;;;;;;;4.48;99.18;97533.70;107990;1263;59709;-66
2022/12/17 16:31:59;;;;;;;7.00;5.40;;;;;;;4.48;99.30;97538.89;107958;1267;71369;-65
2022/12/17 16:34:28;;;;;;;7.00;5.70;;;;;;;4.47;99.25;97538.61;107989;1263;69693;-65
2022/12/17 16:36:56;;;;;;;7.50;5.20;;;;;;;4.46;98.96;97540.67;107977;1265;68805;-65
2022/12/17 16:39:25;;;;;;;6.90;6.00;;;;;;;4.45;98.99;97541.63;107740;1267;59820;-66
2022/12/17 16:41:54;;;;;;;7.00;5.90;;;;;;;4.43;98.81;97551.19;108029;1267;59699;-66
2022/12/17 16:44:23;;;;;;;8.80;6.10;;;;;;;4.42;98.87;97552.62;108015;1267;70548;-65
2022/12/17 16:46:51;;;;;;;8.00;6.00;;;;;;;4.38;98.44;97552.11;108085;1266;68452;-65
2022/12/17 16:49:22;;;;;;;7.90;6.60;;;;;;;4.33;98.22;97556.84;107981;1262;69743;-66
2022/12/17 16:51:52;;;;;;;10.10;8.30;;;;;;;4.25;98.79;97555.14;107950;1262;59752;-66
2022/12/17 16:54:27;;;;;;;9.30;6.70;;;;;;;4.19;98.79;97568.20;107986;1263;59717;-65
2022/12/17 16:56:55;;;;;;;8.50;6.40;;;;;;;4.14;99.38;97578.73;107991;1266;72326;-65
2022/12/17 16:59:27;;;;;;;9.00;6.50;;;;;;;4.13;100.00;97586.40;107979;1267;69187;-65
2022/12/17 17:01:56;;;;;;;11.50;8.30;;;;;;;4.04;99.72;97584.52;108025;1267;69108;-65
2022/12/17 17:04:25;;;;;;;11.10;8.20;;;;;;;4.00;99.71;97593.48;107996;1267;59719;-65
2022/12/17 17:06:56;;;;;;;9.40;7.70;;;;;;;3.91;100.00;97600.95;108019;1267;59671;-65
2022/12/17 17:09:24;;;;;;;;;;;;;;;3.84;100.00;97604.36;108015;1266;70403;-65
2022/12/17 17:11:57;;;;;;;9.80;7.50;;;;;;;3.78;100.00;97613.05;107998;1266;68425;-65
2022/12/17 17:14:26;;;;;;;10.70;7.70;;;;;;;3.72;100.00;97603.17;107987;1263;69752;-65
2022/12/17 17:16:55;;;;;;;8.30;6.70;;;;;;;3.66;99.92;97610.14;108022;1267;59767;-65
2022/12/17 17:19:24;;;;;;;9.10;7.90;;;;;;;3.61;100.00;97612.39;108001;1267;59701;-65
2022/12/17 17:21:53;;;;;;;9.50;7.80;;;;;;;3.54;100.00;97612.85;108011;1267;71649;-65
2022/12/17 17:24:24;;;;;;;9.00;7.60;;;;;;;3.52;100.00;97611.74;108011;1267;69667;-65
2022/12/17 17:26:53;;;;;;;12.00;8.40;;;;;;;3.50;100.00;97615.95;107983;1267;69349;-65
2022/12/17 17:29:22;;;;;;;11.70;9.10;;;;;;;3.50;100.00;97620.41;107999;1266;59743;-65
2022/12/17 17:31:51;;;;;;;11.30;8.70;;;;;;;3.47;100.00;97625.21;108014;1267;59687;-65
2022/12/17 17:34:38;;;;;;;14.00;8.80;;;;;;;3.46;99.99;97630.77;107985;1267;72041;-65
2022/12/17 17:37:07;;;;;;;20.10;13.00;;;;;;;3.45;99.81;97636.13;107964;1267;68014;-65
2022/12/17 17:39:36;;;;;;;16.60;12.50;;;;;;;3.45;99.65;97644.73;108014;1267;69737;-65
2022/12/17 17:42:05;;;;;;;15.70;11.10;;;;;;;3.43;99.48;97647.27;108027;1263;59782;-65
2022/12/17 17:44:34;;;;;;;10.70;8.10;;;;;;;3.42;99.44;97642.84;108011;1265;59695;-66
2022/12/17 17:47:03;;;;;;;11.40;8.60;;;;;;;3.40;99.41;97643.92;107778;1264;70706;-65
2022/12/17 17:49:32;;;;;;;11.20;8.80;;;;;;;3.38;99.52;97638.53;108006;1264;68988;-65
2022/12/17 17:52:01;;;;;;;12.60;9.00;;;;;;;3.35;99.48;97641.57;107983;1266;69856;-65
2022/12/17 17:54:39;;;;;;;11.80;8.10;;;;;;;3.30;99.26;97636.39;107978;1266;59677;-65
2022/12/17 17:57:08;;;;;;;10.00;7.80;;;;;;;3.27;98.86;97639.45;108048;1265;59674;-66
2022/12/17 17:59:38;;;;;;;10.40;8.20;;;;;;;3.27;98.84;97644.46;107882;1267;71977;-66
2022/12/17 18:02:09;;;;;;;;;;;;;;;3.23;99.08;97649.06;108002;1261;69406;-65
2022/12/17 18:04:38;;;;;;;14.20;10.20;;;;;;;3.22;99.38;97661.70;108003;1267;69892;-65
2022/12/17 18:07:07;;;;;;;13.10;9.80;;;;;;;3.19;99.46;97670.95;107992;1262;59751;-65
2022/12/17 18:09:55;;;;;;;12.00;8.90;;;;;;;3.17;99.47;97671.19;107988;1264;59783;-65
2022/12/17 18:15:11;;;;;;;10.40;8.10;;;;;;;3.11;99.96;97679.19;108009;1265;69200;-65
2022/12/17 18:17:49;;;;;;;11.10;8.40;;;;;;;3.10;99.98;97684.74;107948;1263;69524;-65
2022/12/17 18:20:18;;;;;;;10.70;8.10;;;;;;;3.07;99.90;97683.83;108009;1267;59713;-65
2022/12/17 18:22:46;;;;;;;13.00;8.40;;;;;;;3.04;99.99;97695.27;107964;1267;59766;-65
2022/12/17 18:25:16;;;;;;;12.30;8.00;;;;;;;3.03;100.00;97704.27;108030;1262;70755;-65
2022/12/17 18:27:45;;;;;;;9.50;7.80;;;;;;;3.04;100.00;97708.04;107943;1267;68655;-65
2022/12/17 18:30:15;;;;;;;11.60;8.70;;;;;;;3.02;100.00;97717.58;107966;1267;69380;-65
2022/12/17 18:32:44;;;;;;;;;;;;;;;3.00;100.00;97721.77;107979;1266;59771;-65
2022/12/17 18:35:16;;;;;;;17.50;12.40;;;;;;;3.00;100.00;97731.74;107955;1261;59747;-65
2022/12/17 18:37:44;;;;;;;15.70;12.10;;;;;;;3.01;100.00;97732.44;107978;1267;71225;-66
2022/12/17 18:40:13;;;;;;;24.40;15.10;;;;;;;3.00;100.00;97736.06;107943;1267;69804;-65
2022/12/17 18:45:29;;;;;;;14.80;10.30;;;;;;;2.93;100.00;97748.04;107970;1267;59757;-65
2022/12/17 18:47:57;;;;;;;17.80;12.50;;;;;;;2.94;100.00;97749.56;108077;1267;59747;-65
2022/12/17 18:50:26;;;;;;;20.60;13.10;;;;;;;2.93;100.00;97755.77;107993;1265;72130;-65
2022/12/17 18:52:55;;;;;;;15.20;10.40;;;;;;;2.92;100.00;97760.14;107968;1267;69906;-65
2022/12/17 18:55:23;;;;;;;12.20;9.40;;;;;;;2.89;100.00;97766.27;107966;1263;70010;-65
2022/12/17 18:57:52;;;;;;;15.50;9.90;;;;;;;2.88;100.00;97773.52;108004;1267;59776;-65
2022/12/17 19:00:21;;;;;;;14.10;9.80;;;;;;;2.87;100.00;97778.56;107959;1267;59702;-65
2022/12/17 19:02:49;;;;;;;12.60;9.20;;;;;;;2.83;100.00;97785.77;108004;1267;72008;-65
2022/12/17 19:05:19;;;;;;;15.60;11.30;;;;;;;2.83;100.00;97790.95;107977;1263;69847;-65
2022/12/17 19:07:47;;;;;;;20.90;13.20;;;;;;;2.83;100.00;97792.48;107987;1267;69899;-66
2022/12/17 19:10:16;;;;;;;17.80;12.30;;;;;;;2.82;100.00;97794.77;107982;1267;60035;-65
2022/12/17 19:12:45;;;;;;;25.10;14.70;;;;;;;2.81;100.00;97792.04;108010;1267;59648;-65
2022/12/17 19:15:13;;;;;;;21.10;13.70;;;;;;;2.81;100.00;97798.75;108005;1266;71398;-65
2022/12/17 19:17:42;;;;;;;16.80;11.10;;;;;;;2.79;100.00;97811.73;108008;1267;69213;-65
2022/12/17 19:20:11;;;;;;;16.60;10.80;;;;;;;2.74;100.00;97815.35;107978;1267;69872;-65
2022/12/17 19:22:39;;;;;;;16.30;11.60;;;;;;;2.71;100.00;97813.21;107993;1262;59687;-65
2022/12/17 19:25:10;;;;;;;17.00;11.70;;;;;;;2.68;100.00;97814.88;108027;1267;59683;-65
2022/12/17 19:27:38;;;;;;;15.90;11.60;;;;;;;2.66;100.00;97815.80;107976;1267;70459;-65
2022/12/17 19:30:08;;;;;;;16.40;11.50;;;;;;;2.63;100.00;97822.45;107988;1265;69152;-65
2022/12/17 19:32:36;;;;;;;19.90;11.20;;;;;;;2.59;100.00;97826.20;107944;1263;69832;-65
2022/12/17 19:35:05;;;;;;;14.30;11.10;;;;;;;2.55;100.00;97830.80;107993;1267;59764;-65
2022/12/17 19:37:34;;;;;;;17.60;12.00;;;;;;;2.54;100.00;97835.48;108024;1263;59714;-66
2022/12/17 19:40:03;;;;;;;17.50;12.70;;;;;;;2.50;100.00;97840.27;107945;1260;71338;-65
2022/12/17 19:42:31;;;;;;;17.70;11.90;;;;;;;2.46;100.00;97841.59;107991;1265;69105;-65
2022/12/17 19:45:05;;;;;;;16.90;12.30;;;;;;;2.42;100.00;97859.42;107967;1267;69085;-65
2022/12/17 19:47:34;;;;;;;15.60;10.80;;;;;;;2.40;100.00;97857.29;108040;1262;59742;-67
2022/12/17 19:50:03;;;;;;;19.20;12.60;;;;;;;2.38;100.00;97862.70;108025;1265;59714;-64
2022/12/17 19:52:32;;;;;;;19.50;11.70;;;;;;;2.35;100.00;97859.68;108062;1261;71856;-65
2022/12/17 19:55:01;;;;;;;18.20;12.50;;;;;;;2.32;100.00;97860.65;107970;1267;69202;-65
2022/12/17 19:57:31;;;;;;;16.30;11.20;;;;;;;2.26;100.00;97871.47;107956;1267;69087;-65
2022/12/17 19:59:59;;;;;;;13.60;9.50;;;;;;;2.26;100.00;97878.88;108023;1263;59760;-65
2022/12/17 20:02:28;;;;;;;17.90;12.00;;;;;;;2.26;100.00;97879.75;108019;1267;59680;-65
2022/12/17 20:05:00;;;;;;;16.20;10.20;;;;;;;2.26;100.00;97883.71;108013;1257;70849;-65
2022/12/17 20:07:28;;;;;;;19.00;11.40;;;;;;;2.26;100.00;97882.84;107979;1267;69900;-65
2022/12/17 20:09:57;;;;;;;18.00;12.00;;;;;;;2.25;100.00;97885.80;107962;1270;68749;-65
2022/12/17 20:12:26;;;;;;;21.60;12.80;;;;;;;2.25;100.00;97893.37;107971;1263;59700;-65
2022/12/17 20:14:55;;;;;;;19.90;12.60;;;;;;;2.25;100.00;97899.40;107974;1260;59666;-65
2022/12/17 20:17:24;;;;;;;15.60;11.50;;;;;;;2.22;100.00;97893.98;107977;1267;70839;-65
2022/12/17 20:19:55;;;;;;;17.60;12.70;;;;;;;2.20;100.00;97901.79;107989;1267;69686;-65
2022/12/17 20:22:25;;;;;;;17.60;12.40;;;;;;;2.17;100.00;97900.01;107988;1263;68238;-65
2022/12/17 20:24:53;;;;;;;19.30;12.60;;;;;;;2.14;100.00;97900.80;107984;1267;59711;-65
2022/12/17 20:27:22;;;;;;;18.60;12.20;;;;;;;2.07;100.00;97902.36;107940;1265;59691;-65
2022/12/17 20:29:52;;;;;;;17.80;11.90;;;;;;;2.03;100.00;97904.38;107998;1265;71254;-65
2022/12/17 20:32:21;;;;;;;17.30;12.50;;;;;;;1.98;100.00;97917.95;107957;1263;69761;-65
2022/12/17 20:34:50;;;;;;;17.60;11.60;;;;;;;1.95;100.00;97928.88;107937;1264;69864;-65
2022/12/17 20:37:18;;;;;;;18.10;12.50;;;;;;;1.94;100.00;97930.79;107990;1267;59742;-65
2022/12/17 20:39:47;;;;;;;18.10;11.70;;;;;;;1.92;100.00;97939.27;107958;1263;60021;-65
2022/12/17 20:42:16;;;;;;;18.40;12.90;;;;;;;1.90;100.00;97940.02;107970;1261;72149;-65
2022/12/17 20:44:45;;;;;;;17.20;12.80;;;;;;;1.88;100.00;97946.76;107981;1265;69716;-65
2022/12/17 20:47:20;;;;;;;20.50;13.20;;;;;;;1.85;100.00;97944.10;107950;1265;68756;-65
2022/12/17 20:49:49;;;;;;;18.20;11.00;;;;;;;1.83;100.00;97952.92;107944;1265;59797;-65
2022/12/17 20:52:18;;;;;;;18.00;11.80;;;;;;;1.79;100.00;97962.31;107960;1263;59725;-65
2022/12/17 20:54:48;;;;;;;19.80;11.60;;;;;;;1.75;100.00;97966.38;107936;1267;71687;-66
2022/12/17 20:57:17;;;;;;;18.30;12.20;;;;;;;1.72;100.00;97972.67;107944;1267;67324;-66
2022/12/17 20:59:45;;;;;;;19.00;11.50;;;;;;;1.67;100.00;97980.38;107933;1265;69767;-66
2022/12/17 21:02:14;;;;;;;15.90;11.50;;;;;;;1.64;100.00;97977.05;107956;1267;59761;-66
2022/12/17 21:04:43;;;;;;;17.00;10.80;;;;;;;1.62;100.00;97988.08;107970;1267;60137;-66
2022/12/17 21:07:15;;;;;;;17.70;11.70;;;;;;;1.61;100.00;97999.80;107924;1263;70842;-66
2022/12/17 21:09:43;;;;;;;18.70;12.70;;;;;;;1.60;100.00;98005.99;107919;1267;69190;-66
2022/12/17 21:12:12;;;;;;;16.10;10.90;;;;;;;1.59;100.00;98010.52;107942;1267;69207;-66
2022/12/17 21:14:41;;;;;;;17.00;10.80;;;;;;;1.57;100.00;98010.22;107936;1267;59714;-66
2022/12/17 21:17:10;;;;;;;19.30;11.90;;;;;;;1.55;100.00;98015.27;107957;1267;59684;-66
2022/12/17 21:19:41;;;;;;;20.40;12.70;;;;;;;1.54;100.00;98019.57;107953;1265;71214;-66
2022/12/17 21:22:10;;;;;;;19.80;11.40;;;;;;;1.53;100.00;98020.29;107939;1263;69738;-65
2022/12/17 21:24:39;;;;;;;18.20;12.60;;;;;;;1.52;100.00;98022.70;107948;1263;69795;-66
2022/12/17 21:27:08;;;;;;;21.50;12.80;;;;;;;1.51;100.00;98023.73;107945;1261;59761;-67
2022/12/17 21:29:42;;;;;;;19.20;12.70;;;;;;;1.49;100.00;98026.40;107993;1263;59698;-67
2022/12/17 21:32:11;;;;;;;18.30;12.00;;;;;;;1.48;100.00;98029.17;107962;1265;71934;-67
2022/12/17 21:34:39;;;;;;;16.80;11.40;;;;;;;1.46;100.00;98035.56;107983;1265;69245;-67
2022/12/17 21:37:09;;;;;;;17.60;11.60;;;;;;;1.46;100.00;98035.58;107901;1266;69905;-67
2022/12/17 21:39:39;;;;;;;17.70;11.20;;;;;;;1.45;100.00;98040.91;107965;1265;59745;-66
2022/12/17 21:44:54;;;;;;;14.60;10.30;;;;;;;1.41;100.00;98046.21;107956;1263;71447;-67
2022/12/17 21:47:23;;;;;;;17.90;12.10;;;;;;;1.39;100.00;98052.77;107919;1267;69548;-66
2022/12/17 21:49:52;;;;;;;20.00;12.40;;;;;;;1.37;100.00;98055.89;107933;1265;69233;-66
2022/12/17 21:52:20;;;;;;;18.60;12.20;;;;;;;1.35;100.00;98058.40;107969;1266;59788;-66
2022/12/17 21:54:49;;;;;;;19.50;12.60;;;;;;;1.32;100.00;98065.50;108003;1267;59690;-67
2022/12/17 21:57:18;;;;;;;19.20;11.90;;;;;;;1.28;100.00;98070.05;107978;1267;71364;-66
2022/12/17 21:59:46;;;;;;;17.50;11.60;;;;;;;1.25;100.00;98075.46;107949;1265;69237;-67
2022/12/17 22:02:16;;;;;;;15.60;10.90;;;;;;;1.22;100.00;98079.64;107943;1263;68758;-66
2022/12/17 22:04:45;;;;;;;15.00;11.10;;;;;;;1.18;100.00;98080.79;107950;1265;59757;-66
2022/12/17 22:07:14;;;;;;;14.90;10.00;;;;;;;1.14;100.00;98081.21;107968;1267;60079;-67
2022/12/17 22:09:55;;;;;;;19.40;10.70;;;;;;;1.10;100.00;98091.09;107934;1260;70396;-66
2022/12/17 22:15:32;;;;;;;16.80;11.00;;;;;;;1.01;100.00;98102.14;107955;1263;68794;-67
2022/12/17 22:18:15;;;;;;;17.50;12.30;;;;;;;0.96;100.00;98103.09;107929;1265;59822;-67
2022/12/17 22:20:44;;;;;;;21.50;12.90;;;;;;;0.93;100.00;98101.29;107942;1267;60158;-67
2022/12/17 22:23:12;;;;;;;22.30;13.00;;;;;;;0.90;100.00;98105.46;107966;1263;71210;-67
2022/12/17 22:25:44;;;;;;;17.90;12.40;;;;;;;0.88;100.00;98104.31;107931;1265;68709;-67
2022/12/17 22:28:13;;;;;;;17.70;11.70;;;;;;;0.84;100.00;98113.34;107930;1265;69260;-67
2022/12/17 22:33:30;;;;;;;20.70;12.90;;;;;;;0.79;100.00;98114.65;107940;1263;59720;-67
2022/12/17 22:36:19;;;;;;;20.10;12.00;;;;;;;0.73;100.00;98117.86;107947;1265;70829;-70
2022/12/17 22:39:13;;;;;;;24.40;12.40;;;;;;;0.72;100.00;98122.86;107937;1263;69801;-68
2022/12/17 22:45:09;;;;;;;19.50;12.70;;;;;;;0.68;100.00;98132.05;107944;1267;59755;-68
2022/12/17 22:47:41;;;;;;;21.40;12.60;;;;;;;0.66;100.00;98138.27;107989;1262;59673;-67
2022/12/17 22:50:10;;;;;;;16.90;11.90;;;;;;;0.64;100.00;98139.51;108021;1262;71945;-67
2022/12/17 22:52:40;;;;;;;;;;;;;;;0.61;100.00;98139.40;108030;1262;70165;-68
2022/12/17 22:55:09;;;;;;;23.00;12.50;;;;;;;0.60;100.00;98143.73;107976;1263;69194;-67
2022/12/17 22:57:41;;;;;;;23.80;13.70;;;;;;;0.56;100.00;98151.52;107955;1260;59726;-67
2022/12/17 23:00:16;;;;;;;23.70;13.70;;;;;;;0.50;100.00;98150.60;107967;1263;59664;-67
2022/12/17 23:02:44;;;;;;;22.30;12.70;;;;;;;0.49;100.00;98159.20;108015;1263;71187;-67
2022/12/17 23:05:13;;;;;;;18.20;12.40;;;;;;;0.48;100.00;98160.95;107966;1267;69842;-67
2022/12/17 23:07:42;;;;;;;23.00;12.80;;;;;;;0.47;100.00;98163.36;108034;1262;69893;-68
2022/12/17 23:10:11;;;;;;;21.40;12.50;;;;;;;0.46;100.00;98171.28;107996;1265;59696;-67
2022/12/17 23:12:54;;;;;;;21.20;14.10;;;;;;;0.47;100.00;98178.82;107952;1267;59646;-68
2022/12/17 23:15:26;;;;;;;22.40;12.80;;;;;;;0.46;100.00;98186.02;108026;1267;71415;-66
2022/12/17 23:17:58;;;;;;;19.50;11.70;;;;;;;0.47;100.00;98193.74;107995;1267;69196;-66
2022/12/17 23:20:31;;;;;;;17.60;11.70;;;;;;;0.47;100.00;98187.88;107925;1267;68464;-66
2022/12/17 23:23:00;;;;;;;24.10;14.80;;;;;;;0.47;100.00;98194.23;107970;1267;59706;-66
2022/12/17 23:25:30;;;;;;;24.00;12.90;;;;;;;0.48;100.00;98196.45;107916;1263;59729;-66
2022/12/17 23:27:58;;;;;;;21.60;13.40;;;;;;;0.48;100.00;98196.80;107968;1267;70427;-66
2022/12/17 23:30:27;;;;;;;21.50;13.30;;;;;;;0.47;100.00;98197.15;107991;1263;69799;-66
2022/12/17 23:32:56;;;;;;;24.60;13.80;;;;;;;0.46;100.00;98195.98;107959;1263;69727;-66
2022/12/17 23:35:25;;;;;;;23.20;13.60;;;;;;;0.45;100.00;98196.84;107714;1267;59812;-66
2022/12/17 23:37:54;;;;;;;18.00;12.20;;;;;;;0.45;100.00;98202.48;107963;1263;60172;-66
2022/12/17 23:40:24;;;;;;;24.50;13.30;;;;;;;0.45;100.00;98205.08;107967;1267;71768;-66
2022/12/17 23:42:56;;;;;;;23.50;13.90;;;;;;;0.44;100.00;98212.30;108031;1263;69250;-66
2022/12/17 23:45:25;;;;;;;19.70;13.10;;;;;;;0.42;100.00;98213.04;107985;1266;69303;-66
2022/12/17 23:47:56;;;;;;;25.80;14.70;;;;;;;0.41;100.00;98216.98;107986;1265;59729;-66
2022/12/17 23:50:25;;;;;;;25.60;13.90;;;;;;;0.41;100.00;98219.23;108050;1265;59661;-66
2022/12/17 23:52:54;;;;;;;22.30;12.70;;;;;;;0.39;100.00;98216.52;108047;1265;71393;-67
2022/12/17 23:55:23;;;;;;;21.00;13.20;;;;;;;0.38;100.00;98220.48;107986;1265;69631;-66
2022/12/17 23:57:55;;;;;;;22.40;13.40;;;;;;;0.37;100.00;98221.36;108002;1263;69289;-66
